KFXE/FXE METAR and TAF weather

Enter ICAO airport designator
Station Type Date Time Source
KFXE METAR 2019/07/17 17:53 UTC NOAA

KFXE 171753Z 10009KT 10SM SCT036 33/23 A3012 RMK AO2 SLP203 60000 T03280228 10333 20289 55004


Station Type Date Time Source
KFXE Decoded METAR 2019/07/17 17:53 UTC NOAA

FORT LAUDERDALE EXECUTIVE, FL, United States (KFXE) 26-12N 080-11W 6M
Jul 17, 2019 - 01:53 PM EDT / 2019.07.17 1753 UTC
Wind: from the E (100 degrees) at 10 MPH (9 KT):0
Visibility: 10 mile(s):0
Sky conditions: partly cloudy
Temperature: 91.0 F (32.8 C)
Heat index: 99.1 F (37.3 C):1
Dew Point: 73.0 F (22.8 C)
Relative Humidity: 55%
Pressure (altimeter): 30.12 in. Hg (1019 hPa)
Pressure tendency: 0.01 inches (0.4 hPa) lower than three hours ago
ob: KFXE 171753Z 10009KT 10SM SCT036 33/23 A3012 RMK AO2 SLP203 60000 T03280228 10333 20289 55004
cycle: 18

Station Type Date Time Source
KFXE TAF 2019/07/17 18:24 UTC NOAA

TAF KFXE 171721Z 1718/1818 12010KT P6SM SCT030 SCT060
FM180000 12005KT P6SM FEW025 SCT250
FM181400 13010KT P6SM SCT035 SCT250

Example: see airport list